Time;durP1;ratioP1;P1;durP2;ratioP2;P2;SDS_P1;SDS_P2;PMS_P1;PMS_P2;Temp;Humidity;BMP_temperature;BMP_pressure;BME280_temperature;BME280_humidity;BME280_pressure;Samples;Min_cycle;Max_cycle;Signal;HPM_P1;HPM_P2
2023/01/11 00:00:39;;;;;;;9.50;3.92;;;;;;;8.77;100.00;100538.47;5053140;28;20106;-87
2023/01/11 00:03:05;;;;;;;7.15;4.00;;;;;;;8.81;100.00;100528.47;5053592;28;20441;-86
2023/01/11 00:05:31;;;;;;;10.50;3.80;;;;;;;8.81;100.00;100552.34;5053155;28;20124;-87
2023/01/11 00:07:57;;;;;;;11.00;4.03;;;;;;;8.83;100.00;100539.75;5052605;28;20112;-87
2023/01/11 00:10:23;;;;;;;12.52;4.18;;;;;;;8.83;100.00;100526.50;5053575;28;20222;-86
2023/01/11 00:12:48;;;;;;;11.98;4.70;;;;;;;8.86;100.00;100533.34;5053293;28;20104;-85
2023/01/11 00:15:14;;;;;;;10.07;4.22;;;;;;;8.84;100.00;100525.53;5053132;28;20060;-85
2023/01/11 00:17:40;;;;;;;7.50;3.85;;;;;;;8.85;100.00;100537.81;5054220;28;20384;-87
2023/01/11 00:20:08;;;;;;;13.07;4.97;;;;;;;8.87;100.00;100545.63;5056637;28;20043;-87
2023/01/11 00:22:33;;;;;;;11.18;3.95;;;;;;;8.86;100.00;100542.16;5057733;28;20057;-85
2023/01/11 00:24:58;;;;;;;8.75;4.72;;;;;;;8.89;100.00;100546.34;5057307;28;20045;-88
2023/01/11 00:27:24;;;;;;;12.05;4.20;;;;;;;8.87;100.00;100549.13;5057289;28;20024;-84
2023/01/11 00:29:49;;;;;;;8.85;3.75;;;;;;;8.91;100.00;100549.69;5056963;28;20082;-87
2023/01/11 00:32:14;;;;;;;9.32;3.55;;;;;;;8.91;100.00;100545.25;5057053;28;20057;-85
2023/01/11 00:34:40;;;;;;;9.85;4.18;;;;;;;8.91;100.00;100531.97;5056927;28;20044;-87
2023/01/11 00:37:06;;;;;;;8.57;4.40;;;;;;;8.90;100.00;100527.63;5056797;28;20025;-87
2023/01/11 00:39:31;;;;;;;7.18;3.83;;;;;;;8.91;100.00;100539.94;5056858;28;20075;-86
2023/01/11 00:50:10;;;;;;;7.55;3.88;;;;;;;8.92;100.00;100551.38;5057024;28;20126;-88
2023/01/11 00:52:35;;;;;;;7.72;4.03;;;;;;;8.94;100.00;100542.31;5055003;28;20037;-86
2023/01/11 00:55:01;;;;;;;6.97;4.00;;;;;;;8.93;100.00;100550.41;5056390;28;20069;-88
2023/01/11 00:57:26;;;;;;;6.75;3.70;;;;;;;8.94;100.00;100552.94;5056534;28;20107;-88
2023/01/11 00:59:51;;;;;;;9.68;4.15;;;;;;;8.93;100.00;100545.13;5056526;28;20029;-88
2023/01/11 01:02:17;;;;;;;4.88;3.63;;;;;;;8.93;100.00;100537.97;5056437;28;20121;-82
2023/01/11 01:04:42;;;;;;;6.85;3.85;;;;;;;8.95;100.00;100551.13;5056958;28;20039;-89
2023/01/11 01:07:08;;;;;;;7.85;3.40;;;;;;;8.97;100.00;100549.16;5056497;28;20024;-88
2023/01/11 01:09:33;;;;;;;7.32;3.78;;;;;;;8.98;100.00;100549.00;5056887;28;20448;-88
2023/01/11 01:12:01;;;;;;;5.07;3.60;;;;;;;8.97;100.00;100533.22;5056450;28;20400;-87
2023/01/11 01:14:30;;;;;;;6.18;3.80;;;;;;;9.00;100.00;100543.56;5056278;28;20052;-86
2023/01/11 01:17:07;;;;;;;4.65;3.83;;;;;;;9.04;100.00;100541.50;5055003;28;20032;-87
2023/01/11 01:19:34;;;;;;;11.82;3.63;;;;;;;9.11;100.00;100548.78;5055968;28;20029;-85
2023/01/11 01:22:00;;;;;;;6.85;3.30;;;;;;;9.13;100.00;100546.81;5056052;28;20030;-88
2023/01/11 01:24:29;;;;;;;7.72;3.00;;;;;;;9.14;100.00;100545.84;5056342;28;20032;-87
2023/01/11 01:26:56;;;;;;;4.30;2.97;;;;;;;9.23;100.00;100553.97;5055919;28;20400;-86
2023/01/11 01:29:22;;;;;;;8.02;3.03;;;;;;;9.26;100.00;100570.47;5053517;28;20059;-86
2023/01/11 01:31:47;;;;;;;6.07;3.20;;;;;;;9.30;100.00;100573.66;5054769;28;20013;-86
2023/01/11 01:34:12;;;;;;;10.32;3.17;;;;;;;9.33;100.00;100570.72;5055419;28;20108;-84
2023/01/11 01:36:38;;;;;;;4.97;2.85;;;;;;;9.32;100.00;100559.28;5054386;28;20128;-86
2023/01/11 01:39:05;;;;;;;5.93;2.83;;;;;;;9.31;100.00;100575.34;5055446;28;20384;-88
2023/01/11 01:41:31;;;;;;;5.22;3.58;;;;;;;9.36;100.00;100562.53;5055551;28;20029;-87
2023/01/11 01:43:59;;;;;;;6.95;2.67;;;;;;;9.39;100.00;100562.25;5055335;28;20025;-87
2023/01/11 01:46:33;;;;;;;4.70;2.40;;;;;;;9.42;100.00;100564.63;5055581;28;20429;-85
2023/01/11 01:49:11;;;;;;;4.28;1.73;;;;;;;9.48;100.00;100569.38;5054431;28;20029;-85
2023/01/11 01:51:52;;;;;;;2.83;1.38;;;;;;;9.54;100.00;100581.28;5054102;28;20037;-86
2023/01/11 01:54:21;;;;;;;5.38;1.70;;;;;;;9.59;100.00;100579.03;5057468;28;20044;-87
2023/01/11 01:56:55;;;;;;;5.50;1.60;;;;;;;9.63;100.00;100592.84;5055300;28;20032;-85
2023/01/11 01:59:22;;;;;;;3.13;1.67;;;;;;;9.65;100.00;100598.88;5056899;28;20029;-84
2023/01/11 02:01:48;;;;;;;7.75;1.98;;;;;;;9.67;100.00;100588.94;5058498;28;20106;-85
2023/01/11 02:04:29;;;;;;;7.97;1.70;;;;;;;9.67;100.00;100587.16;5056248;28;20170;-86
2023/01/11 02:07:13;;;;;;;5.93;1.67;;;;;;;9.66;100.00;100613.84;5056096;28;20021;-87
2023/01/11 02:10:00;;;;;;;10.30;1.88;;;;;;;9.66;100.00;100589.94;5055216;28;20032;-87
2023/01/11 02:12:28;;;;;;;10.60;1.80;;;;;;;9.64;100.00;100595.41;5055561;28;20082;-84
2023/01/11 02:14:54;;;;;;;8.20;1.95;;;;;;;9.63;100.00;100599.03;5055321;28;20100;-85
2023/01/11 02:17:20;;;;;;;9.25;2.63;;;;;;;9.61;100.00;100606.28;5054911;28;20111;-85
2023/01/11 02:19:51;;;;;;;9.63;2.40;;;;;;;9.59;100.00;100597.63;5054916;28;20032;-86
2023/01/11 02:22:52;;;;;;;11.77;2.28;;;;;;;9.60;100.00;100596.66;5055330;28;20048;-86
2023/01/11 02:25:52;;;;;;;15.93;2.55;;;;;;;9.57;100.00;100593.41;5055550;28;20021;-86
2023/01/11 02:28:36;;;;;;;8.10;2.00;;;;;;;9.56;100.00;100591.75;5055011;28;20107;-86
2023/01/11 02:31:15;;;;;;;16.35;2.60;;;;;;;9.57;100.00;100590.75;5055326;28;20025;-86
2023/01/11 02:34:14;;;;;;;9.82;2.03;;;;;;;9.55;100.00;100598.84;5054689;28;20031;-85
2023/01/11 02:36:47;;;;;;;6.13;2.30;;;;;;;9.57;100.00;100612.00;5059521;28;20049;-84
2023/01/11 02:39:12;;;;;;;11.88;2.33;;;;;;;9.57;100.00;100596.06;5069720;28;20043;-86
2023/01/11 02:47:57;;;;;;;11.55;2.38;;;;;;;9.50;100.00;100591.31;5055030;28;20102;-86
2023/01/11 02:50:46;;;;;;;9.05;2.10;;;;;;;9.49;100.00;100592.31;5054313;28;20045;-87
2023/01/11 02:53:31;;;;;;;7.13;1.90;;;;;;;9.47;100.00;100609.34;5054165;28;20017;-86
2023/01/11 02:56:00;;;;;;;14.07;2.30;;;;;;;9.46;100.00;100613.81;5046583;28;20041;-84
2023/01/11 02:58:30;;;;;;;16.10;2.70;;;;;;;9.44;100.00;100613.13;5055007;28;20412;-88
2023/01/11 03:00:57;;;;;;;10.73;1.90;;;;;;;9.44;100.00;100615.78;5054461;28;20025;-87
2023/01/11 03:03:23;;;;;;;19.60;3.47;;;;;;;9.45;100.00;100611.28;5054439;28;20100;-87
2023/01/11 03:05:52;;;;;;;26.60;3.78;;;;;;;9.44;100.00;100605.16;5053874;28;20028;-86
2023/01/11 03:08:40;;;;;;;14.65;3.33;;;;;;;9.42;100.00;100622.19;5054561;28;20029;-86
2023/01/11 03:11:13;;;;;;;13.32;2.95;;;;;;;9.41;100.00;100636.47;5054284;28;20039;-86
2023/01/11 03:13:41;;;;;;;18.90;3.10;;;;;;;9.44;100.00;100634.34;5053520;28;20032;-87
2023/01/11 03:16:24;;;;;;;23.58;2.90;;;;;;;9.43;100.00;100631.84;5053670;28;20043;-87
2023/01/11 03:19:16;;;;;;;28.40;4.28;;;;;;;9.40;100.00;100624.97;5054156;28;20016;-86
2023/01/11 03:21:51;;;;;;;22.45;3.22;;;;;;;9.38;100.00;100642.03;5054493;28;20021;-86
2023/01/11 03:24:43;;;;;;;20.70;3.88;;;;;;;9.34;100.00;100626.38;5053141;28;20021;-86
2023/01/11 03:27:31;;;;;;;17.70;3.00;;;;;;;9.29;100.00;100622.44;5054130;28;20082;-87
2023/01/11 03:30:20;;;;;;;19.42;3.25;;;;;;;9.27;100.00;100627.91;5053267;28;20033;-86
2023/01/11 03:32:59;;;;;;;22.52;3.75;;;;;;;9.27;100.00;100619.06;5054069;28;20029;-86
2023/01/11 03:35:53;;;;;;;25.30;3.60;;;;;;;9.27;100.00;100624.38;5053963;28;20029;-86
2023/01/11 03:38:26;;;;;;;19.55;3.08;;;;;;;9.29;100.00;100644.53;5049896;28;20098;-86
2023/01/11 03:41:00;;;;;;;21.90;4.05;;;;;;;9.30;100.00;100645.34;5053677;28;20052;-86
2023/01/11 03:43:28;;;;;;;22.50;3.25;;;;;;;9.30;100.00;100648.88;5053530;28;20031;-85
2023/01/11 03:46:10;;;;;;;20.42;3.47;;;;;;;9.29;100.00;100652.50;5053476;28;20025;-87
2023/01/11 03:48:41;;;;;;;21.38;3.88;;;;;;;9.32;100.00;100649.56;5036183;28;20074;-85
2023/01/11 03:51:11;;;;;;;24.45;3.85;;;;;;;9.32;100.00;100662.00;5053734;28;20021;-86
2023/01/11 03:53:39;;;;;;;27.88;3.22;;;;;;;9.32;100.00;100664.66;5059658;28;20029;-87
2023/01/11 03:56:09;;;;;;;22.95;3.33;;;;;;;9.30;100.00;100658.63;5060048;28;20044;-86
2023/01/11 03:58:35;;;;;;;28.17;3.72;;;;;;;9.30;100.00;100662.16;5060490;28;20032;-85
2023/01/11 04:01:01;;;;;;;21.10;3.50;;;;;;;9.32;100.00;100678.75;5059968;28;20032;-86
2023/01/11 04:03:27;;;;;;;24.17;4.28;;;;;;;9.32;100.00;100685.91;5059764;28;20029;-86
2023/01/11 04:05:57;;;;;;;27.23;3.70;;;;;;;9.34;100.00;100699.88;5059696;28;20380;-86
2023/01/11 04:08:22;;;;;;;28.42;3.05;;;;;;;9.34;100.00;100706.03;5059559;28;20039;-87
2023/01/11 04:10:47;;;;;;;21.25;3.40;;;;;;;9.34;100.00;100703.38;5059806;28;20029;-86
2023/01/11 04:13:13;;;;;;;28.65;3.65;;;;;;;9.31;100.00;100697.50;5059692;28;20029;-87
2023/01/11 04:15:38;;;;;;;23.05;3.17;;;;;;;9.28;100.00;100695.94;5060579;28;20423;-86
2023/01/11 04:18:04;;;;;;;25.15;4.07;;;;;;;9.26;100.00;100700.53;5060265;28;20033;-86
2023/01/11 04:20:35;;;;;;;19.83;3.88;;;;;;;9.28;100.00;100695.94;5059749;28;20025;-85
2023/01/11 04:23:01;;;;;;;19.98;3.70;;;;;;;9.29;100.00;100702.94;5059547;28;20484;-86
2023/01/11 04:25:27;;;;;;;19.23;3.65;;;;;;;9.30;100.00;100701.97;5059664;28;20029;-85
2023/01/11 04:27:52;;;;;;;28.00;3.95;;;;;;;9.29;100.00;100694.13;5059550;28;20419;-85
2023/01/11 04:30:18;;;;;;;25.35;3.80;;;;;;;9.27;100.00;100718.16;5058441;28;20350;-85
2023/01/11 04:32:43;;;;;;;25.00;3.38;;;;;;;9.25;100.00;100706.81;5059784;28;20020;-85
2023/01/11 04:35:09;;;;;;;21.98;3.05;;;;;;;9.24;100.00;100710.47;5060381;28;20096;-85
2023/01/11 04:37:34;;;;;;;27.10;3.42;;;;;;;9.20;100.00;100710.88;5059397;28;20384;-85
2023/01/11 04:40:00;;;;;;;24.02;3.83;;;;;;;9.14;100.00;100722.88;5059388;28;20029;-85
2023/01/11 04:42:25;;;;;;;19.38;3.38;;;;;;;9.14;100.00;100723.69;5060278;28;20424;-86
2023/01/11 04:44:51;;;;;;;27.77;4.35;;;;;;;9.11;100.00;100723.13;5059959;28;20086;-85
2023/01/11 04:47:20;;;;;;;25.25;3.42;;;;;;;9.10;100.00;100726.75;5059878;28;20028;-85
2023/01/11 04:49:46;;;;;;;16.98;2.78;;;;;;;9.09;100.00;100730.38;5059529;28;20048;-85
2023/01/11 04:52:14;;;;;;;25.48;3.78;;;;;;;9.08;100.00;100734.00;5060507;28;20091;-86
2023/01/11 04:54:40;;;;;;;22.98;3.72;;;;;;;9.03;100.00;100721.09;5058062;28;20353;-85
2023/01/11 04:57:10;;;;;;;15.02;2.70;;;;;;;8.97;100.00;100735.78;5060068;28;20037;-84
2023/01/11 04:59:36;;;;;;;24.95;3.58;;;;;;;8.92;100.00;100737.13;5059596;28;20056;-85
2023/01/11 05:02:01;;;;;;;17.58;3.67;;;;;;;8.89;100.00;100737.38;5059566;28;20029;-85
2023/01/11 05:04:27;;;;;;;18.85;3.20;;;;;;;8.83;100.00;100741.41;5055106;28;20025;-84
2023/01/11 05:06:52;;;;;;;19.17;3.22;;;;;;;8.82;100.00;100745.88;5056024;28;20033;-84
2023/01/11 05:09:17;;;;;;;22.88;3.15;;;;;;;8.77;100.00;100739.28;5057018;28;20033;-85
2023/01/11 05:11:44;;;;;;;19.10;2.80;;;;;;;8.75;100.00;100742.06;5056207;28;20029;-86
2023/01/11 05:14:09;;;;;;;23.63;3.30;;;;;;;8.71;100.00;100758.34;5056218;28;20441;-86
2023/01/11 05:16:35;;;;;;;18.85;2.85;;;;;;;8.67;100.00;100741.00;5056155;28;20039;-87
2023/01/11 05:19:01;;;;;;;18.30;2.75;;;;;;;8.65;100.00;100757.06;5056051;28;20632;-85
2023/01/11 05:21:34;;;;;;;16.88;3.20;;;;;;;8.63;100.00;100759.00;5058292;28;20032;-84
2023/01/11 05:24:00;;;;;;;15.48;2.70;;;;;;;8.62;100.00;100759.97;5059313;28;20021;-85
2023/01/11 05:26:28;;;;;;;22.83;3.13;;;;;;;8.59;100.00;100766.38;5059335;28;20048;-85
2023/01/11 05:28:57;;;;;;;21.35;3.20;;;;;;;8.52;100.00;100759.88;5057373;28;20049;-85
2023/01/11 05:31:23;;;;;;;26.63;3.60;;;;;;;8.45;100.00;100767.50;5056317;28;20107;-85
2023/01/11 05:33:49;;;;;;;18.17;2.92;;;;;;;8.43;100.00;100777.38;5054473;28;20441;-85
2023/01/11 05:36:21;;;;;;;25.83;3.15;;;;;;;8.39;100.00;100770.66;5054568;28;20036;-85
2023/01/11 05:38:49;;;;;;;26.92;3.05;;;;;;;8.37;100.00;100775.22;5056108;28;20029;-85
2023/01/11 05:41:16;;;;;;;14.95;2.60;;;;;;;8.28;100.00;100765.38;5055434;28;20052;-85
2023/01/11 05:46:31;;;;;;;20.55;3.78;;;;;;;8.18;100.00;100786.50;5055485;28;20126;-86
2023/01/11 05:48:59;;;;;;;17.25;3.05;;;;;;;8.17;100.00;100779.50;5054951;28;20029;-85
2023/01/11 05:51:26;;;;;;;16.10;1.95;;;;;;;8.13;100.00;100796.63;5055011;28;20029;-87
2023/01/11 05:53:52;;;;;;;20.30;2.97;;;;;;;8.07;100.00;100782.06;5055100;28;20055;-87
2023/01/11 05:56:21;;;;;;;18.15;2.95;;;;;;;8.00;100.00;100788.84;5055568;28;20094;-85
2023/01/11 05:58:50;;;;;;;16.27;2.88;;;;;;;7.91;100.00;100797.50;5055537;28;20083;-87
2023/01/11 06:01:17;;;;;;;15.73;2.95;;;;;;;7.82;100.00;100800.91;5055119;28;20025;-87
2023/01/11 06:03:43;;;;;;;20.20;3.00;;;;;;;7.81;100.00;100796.53;5054938;28;20404;-86
2023/01/11 06:06:09;;;;;;;23.27;3.80;;;;;;;7.83;100.00;100816.66;5055646;28;20511;-85
2023/01/11 06:08:35;;;;;;;18.40;2.95;;;;;;;7.89;100.00;100824.13;5055303;28;20033;-84
2023/01/11 06:11:00;;;;;;;16.73;2.35;;;;;;;7.93;100.00;100820.28;5055189;28;20036;-85
2023/01/11 06:13:25;;;;;;;16.70;2.78;;;;;;;7.97;100.00;100826.16;5055307;28;20025;-87
2023/01/11 06:15:59;;;;;;;20.65;3.00;;;;;;;8.01;100.00;100830.25;5054890;28;20389;-85
2023/01/11 06:18:25;;;;;;;20.85;2.85;;;;;;;7.98;100.00;100837.63;5055663;28;20028;-85
2023/01/11 06:20:52;;;;;;;20.30;2.80;;;;;;;7.93;100.00;100835.34;5054533;28;20035;-85
2023/01/11 06:23:18;;;;;;;17.15;2.70;;;;;;;7.86;100.00;100831.47;5055153;28;20029;-89
2023/01/11 06:25:44;;;;;;;22.63;3.40;;;;;;;7.78;100.00;100832.09;5054875;28;20029;-89
2023/01/11 06:28:10;;;;;;;19.08;3.20;;;;;;;7.67;100.00;100851.44;5054503;28;20109;-90
2023/01/11 06:30:35;;;;;;;26.13;3.35;;;;;;;7.65;100.00;100852.56;5054920;28;20414;-88
2023/01/11 06:33:04;;;;;;;18.10;3.85;;;;;;;7.58;100.00;100849.53;5055102;28;20028;-88
2023/01/11 06:35:38;;;;;;;16.27;2.60;;;;;;;7.59;100.00;100865.28;5053289;28;20480;-88
2023/01/11 06:38:08;;;;;;;18.15;3.15;;;;;;;7.57;100.00;100854.00;5054418;28;20025;-83
2023/01/11 06:40:34;;;;;;;39.50;4.15;;;;;;;7.58;100.00;100858.34;5055056;28;20032;-87
2023/01/11 06:43:03;;;;;;;18.48;3.03;;;;;;;7.58;100.00;100862.75;5054508;28;20025;-85
2023/01/11 06:45:30;;;;;;;23.30;3.10;;;;;;;7.54;100.00;100866.63;5054755;28;20437;-85
2023/01/11 06:47:55;;;;;;;29.52;3.20;;;;;;;7.45;100.00;100870.84;5054298;28;20070;-86
2023/01/11 06:50:20;;;;;;;20.67;3.67;;;;;;;7.37;100.00;100870.56;5054929;28;20033;-88
2023/01/11 06:52:57;;;;;;;22.75;3.65;;;;;;;7.33;100.00;100872.63;5053411;28;20032;-88
2023/01/11 06:55:25;;;;;;;23.58;2.90;;;;;;;7.26;100.00;100868.75;5053767;28;20052;-87
2023/01/11 06:57:50;;;;;;;18.05;3.28;;;;;;;7.28;100.00;100877.41;5053835;28;20029;-87
2023/01/11 07:00:17;;;;;;;21.75;3.85;;;;;;;7.29;100.00;100876.44;5054708;28;20039;-86
2023/01/11 07:02:43;;;;;;;19.90;3.50;;;;;;;7.28;100.00;100877.41;5055079;28;20397;-87
2023/01/11 07:05:09;;;;;;;19.50;4.47;;;;;;;7.21;100.00;100881.47;5053597;28;20025;-84
2023/01/11 07:07:38;;;;;;;27.88;3.45;;;;;;;7.09;100.00;100885.03;5054029;28;20036;-83
2023/01/11 07:10:13;;;;;;;20.60;3.72;;;;;;;6.99;100.00;100888.38;5052481;28;20517;-81
2023/01/11 07:12:38;;;;;;;21.52;2.90;;;;;;;6.99;100.00;100892.84;5053710;28;20049;-81
2023/01/11 07:15:05;;;;;;;21.17;3.05;;;;;;;6.97;100.00;100892.97;5052024;28;20113;-81
2023/01/11 07:17:31;;;;;;;24.38;4.40;;;;;;;6.99;100.00;100909.56;5053355;28;20420;-82
2023/01/11 07:19:56;;;;;;;23.27;3.35;;;;;;;7.00;100.00;100915.69;5052280;28;20111;-83
2023/01/11 07:22:22;;;;;;;26.13;3.50;;;;;;;6.95;100.00;100926.59;5053348;28;20122;-84
2023/01/11 07:24:48;;;;;;;27.00;3.58;;;;;;;6.88;100.00;100926.22;5053236;28;20513;-83
2023/01/11 07:27:14;;;;;;;40.65;5.78;;;;;;;6.87;100.00;100921.88;5051993;28;20031;-84
2023/01/11 07:29:39;;;;;;;18.52;3.38;;;;;;;6.81;100.00;100926.78;5053755;28;20116;-84
2023/01/11 07:32:05;;;;;;;20.10;3.50;;;;;;;6.80;100.00;100930.38;5052910;28;20467;-81
2023/01/11 07:34:30;;;;;;;20.17;3.50;;;;;;;6.75;100.00;100933.38;5053148;28;20032;-84
2023/01/11 07:36:56;;;;;;;23.10;3.20;;;;;;;6.66;100.00;100940.16;5052887;28;20032;-86
2023/01/11 07:39:21;;;;;;;24.45;4.15;;;;;;;6.62;100.00;100938.69;5054249;28;20021;-83
2023/01/11 07:44:30;;;;;;;24.50;3.03;;;;;;;6.69;100.00;100950.53;5053575;28;20044;-88
2023/01/11 07:46:56;;;;;;;20.17;3.45;;;;;;;6.75;100.00;100953.66;5052954;28;20025;-90
2023/01/11 07:49:25;;;;;;;26.20;3.70;;;;;;;6.76;100.00;100945.63;5054232;28;20048;-91
2023/01/11 07:51:51;;;;;;;24.73;3.50;;;;;;;6.83;100.00;100953.97;5054242;28;20028;-87
2023/01/11 07:54:17;;;;;;;32.35;3.65;;;;;;;6.83;100.00;100964.53;5052400;28;20099;-90
2023/01/11 07:56:45;;;;;;;22.63;3.50;;;;;;;6.79;100.00;100960.41;5054306;28;20098;-90
2023/01/11 07:59:11;;;;;;;22.95;3.92;;;;;;;6.71;100.00;100968.91;5052834;28;20112;-82
2023/01/11 08:01:37;;;;;;;18.75;3.17;;;;;;;6.69;100.00;100969.03;5053305;28;20061;-87
2023/01/11 08:04:02;;;;;;;31.85;3.95;;;;;;;6.74;100.00;100967.84;5054337;28;20033;-86
2023/01/11 08:06:28;;;;;;;22.25;3.35;;;;;;;6.77;100.00;100980.84;5053066;28;20061;-89
2023/01/11 08:09:01;;;;;;;31.27;3.67;;;;;;;6.80;100.00;100973.53;5052248;28;20442;-86
2023/01/11 08:16:53;;;;;;;19.95;3.63;;;;;;;6.74;100.00;100987.22;5053747;28;20125;-89
2023/01/11 08:19:19;;;;;;;38.90;3.67;;;;;;;6.72;100.00;100986.47;5053767;28;20052;-90
2023/01/11 08:21:44;;;;;;;24.52;3.58;;;;;;;6.73;100.00;100995.25;5053109;28;20053;-89
2023/01/11 08:24:10;;;;;;;26.33;3.88;;;;;;;6.66;100.00;101000.97;5052983;28;20047;-91
2023/01/11 08:26:35;;;;;;;22.42;3.50;;;;;;;6.63;100.00;101003.00;5052982;28;20436;-90
2023/01/11 08:29:00;;;;;;;21.17;3.10;;;;;;;6.62;100.00;101023.31;5052495;28;20057;-87
2023/01/11 08:31:26;;;;;;;25.85;3.40;;;;;;;6.61;100.00;101018.13;5052917;28;20029;-83
2023/01/11 08:33:51;;;;;;;16.92;3.20;;;;;;;6.68;100.00;101022.84;5053255;28;20140;-84
2023/01/11 08:36:17;;;;;;;21.30;3.67;;;;;;;6.71;100.00;101027.09;5052950;28;20364;-84
2023/01/11 08:38:43;;;;;;;27.40;3.13;;;;;;;6.71;100.00;101022.63;5055369;28;20036;-84
2023/01/11 08:41:13;;;;;;;28.25;3.80;;;;;;;6.75;100.00;101027.72;5056315;28;20089;-86
2023/01/11 08:43:40;;;;;;;19.98;3.80;;;;;;;6.77;100.00;101028.47;5056910;28;20119;-85
2023/01/11 08:46:06;;;;;;;24.67;3.13;;;;;;;6.74;100.00;101018.09;5057126;28;20033;-89
2023/01/11 08:48:32;;;;;;;19.80;3.13;;;;;;;6.74;100.00;101011.00;5056533;28;20021;-88
2023/01/11 08:50:57;;;;;;;23.55;3.78;;;;;;;6.81;100.00;101022.00;5056613;28;20153;-86
2023/01/11 08:53:23;;;;;;;24.65;4.30;;;;;;;6.84;100.00;101027.91;5056227;28;20051;-87
2023/01/11 08:55:49;;;;;;;26.05;3.33;;;;;;;6.95;100.00;101035.06;5057036;28;20056;-88
2023/01/11 08:58:15;;;;;;;37.67;4.43;;;;;;;7.00;100.00;101027.66;5056299;28;20108;-83
2023/01/11 09:00:41;;;;;;;21.65;3.13;;;;;;;7.03;100.00;101024.78;5056372;28;20110;-87
2023/01/11 09:03:12;;;;;;;31.50;4.55;;;;;;;7.04;100.00;101022.97;5056467;28;20029;-88
2023/01/11 09:05:38;;;;;;;23.52;3.45;;;;;;;7.05;100.00;101029.97;5056506;28;20386;-89
2023/01/11 09:08:05;;;;;;;37.08;6.07;;;;;;;7.13;100.00;101037.34;5056119;28;20166;-89
2023/01/11 09:10:30;;;;;;;28.38;3.80;;;;;;;7.14;100.00;101034.59;5054507;28;20037;-89
2023/01/11 09:12:56;;;;;;;27.23;4.43;;;;;;;7.23;100.00;101025.13;5056387;28;20036;-89
2023/01/11 09:15:22;;;;;;;20.33;3.13;;;;;;;7.29;100.00;101039.72;5056674;28;20398;-89
2023/01/11 09:17:48;;;;;;;31.02;3.08;;;;;;;7.32;100.00;101042.13;5056135;28;20108;-87
2023/01/11 09:20:14;;;;;;;20.35;3.75;;;;;;;7.37;100.00;101040.81;5055947;28;20079;-88
2023/01/11 09:22:39;;;;;;;24.17;3.22;;;;;;;7.38;100.00;101039.03;5056002;28;20354;-86
2023/01/11 09:25:05;;;;;;;17.88;3.28;;;;;;;7.42;100.00;101043.16;5055638;28;20102;-87
2023/01/11 09:27:31;;;;;;;25.10;3.25;;;;;;;7.46;100.00;101035.81;5055593;28;20116;-87
2023/01/11 09:29:56;;;;;;;21.90;3.08;;;;;;;7.51;100.00;101036.28;5055839;28;20116;-87
2023/01/11 09:32:22;;;;;;;27.50;3.10;;;;;;;7.54;100.00;101039.59;5055586;28;20092;-90
2023/01/11 09:34:48;;;;;;;19.75;2.75;;;;;;;7.56;100.00;101042.94;5055747;28;20064;-90
2023/01/11 09:37:14;;;;;;;18.63;3.13;;;;;;;7.57;100.00;101036.69;5056012;28;20119;-88
2023/01/11 09:39:40;;;;;;;18.80;3.08;;;;;;;7.59;100.00;101026.81;5055515;28;20086;-89
2023/01/11 09:42:12;;;;;;;25.48;3.10;;;;;;;7.65;100.00;101030.81;5055656;28;20021;-89
2023/01/11 09:44:44;;;;;;;;;;;;;;;7.72;100.00;101040.00;5055662;28;20075;-88
2023/01/11 09:47:32;;;;;;;21.35;3.25;;;;;;;7.80;100.00;101043.88;5055877;28;20059;-87
2023/01/11 09:50:02;;;;;;;30.98;4.03;;;;;;;7.87;100.00;101053.06;5054770;28;20021;-87
2023/01/11 09:52:35;;;;;;;24.90;3.63;;;;;;;7.88;100.00;101050.28;5055807;28;20024;-89
2023/01/11 09:55:01;;;;;;;35.78;3.92;;;;;;;7.91;100.00;101044.75;5055631;28;20041;-88
2023/01/11 09:57:41;;;;;;;21.75;3.92;;;;;;;7.99;100.00;101053.94;5055205;28;20036;-85
2023/01/11 10:00:20;;;;;;;36.17;4.72;;;;;;;8.07;100.00;101062.13;5055655;28;20053;-85
2023/01/11 10:03:23;;;;;;;28.45;3.53;;;;;;;8.17;100.00;101062.28;5056275;28;20071;-82
2023/01/11 10:06:02;;;;;;;22.77;3.28;;;;;;;8.30;100.00;101079.75;5055447;28;20028;-86
2023/01/11 10:08:58;;;;;;;23.00;3.28;;;;;;;8.40;100.00;101082.53;5054130;28;20112;-87
2023/01/11 10:11:36;;;;;;;22.63;4.32;;;;;;;8.44;100.00;101085.84;5055489;28;20067;-86
2023/01/11 10:14:25;;;;;;;19.75;3.20;;;;;;;8.47;100.00;101089.09;5055162;28;20036;-85
2023/01/11 10:17:10;;;;;;;15.95;3.08;;;;;;;8.51;100.00;101099.44;5055015;28;20036;-83
2023/01/11 10:19:46;;;;;;;25.23;3.78;;;;;;;8.59;100.00;101097.06;5054836;28;20045;-85
2023/01/11 10:22:38;;;;;;;19.33;3.78;;;;;;;8.61;100.00;101105.72;5055448;28;20028;-85
2023/01/11 10:25:09;;;;;;;;;;;;;;;8.70;100.00;101099.69;5055153;28;20025;-85
2023/01/11 10:27:47;;;;;;;14.65;2.42;;;;;;;8.87;100.00;101110.78;5055143;28;19908;-83
2023/01/11 10:42:30;;;;;;;24.25;3.35;;;;;;;9.47;100.00;101108.66;5053688;28;20047;-80
2023/01/11 10:45:10;;;;;;;;;;;;;;;9.46;100.00;101104.31;5054345;28;20445;-83
2023/01/11 10:47:47;;;;;;;33.53;3.10;;;;;;;9.42;100.00;101098.41;5053573;28;19909;-83
2023/01/11 10:50:23;;;;;;;32.25;3.67;;;;;;;9.42;100.00;101101.06;5053668;28;20453;-81
2023/01/11 10:53:11;;;;;;;30.85;4.65;;;;;;;9.61;100.00;101102.22;5054034;28;20104;-84
2023/01/11 10:56:06;;;;;;;28.83;3.75;;;;;;;9.61;100.00;101099.56;5054625;28;20047;-82
2023/01/11 10:58:45;;;;;;;26.27;3.38;;;;;;;9.47;100.00;101082.09;5053991;28;20025;-80
2023/01/11 11:01:19;;;;;;;21.35;3.88;;;;;;;9.43;100.00;101102.75;5053181;28;20127;-82
2023/01/11 11:03:59;;;;;;;27.67;4.13;;;;;;;9.53;100.00;101098.38;5053625;28;20037;-82
2023/01/11 11:06:38;;;;;;;31.25;3.88;;;;;;;9.92;100.00;101102.34;5053502;28;20021;-83
2023/01/11 11:09:27;;;;;;;20.27;3.58;;;;;;;10.24;100.00;101087.16;5053994;28;20100;-82
2023/01/11 11:11:57;;;;;;;29.60;3.97;;;;;;;10.12;100.00;101093.53;5054130;28;20177;-82
2023/01/11 11:14:36;;;;;;;22.27;3.35;;;;;;;9.97;100.00;101084.16;5053549;28;20024;-83
2023/01/11 11:17:30;;;;;;;20.15;3.97;;;;;;;9.83;100.00;101095.97;5053783;28;20059;-82
2023/01/11 11:19:57;;;;;;;27.00;3.25;;;;;;;9.66;100.00;101084.94;5055918;28;20021;-81
2023/01/11 11:22:22;;;;;;;31.83;3.85;;;;;;;9.62;100.00;101094.09;5053842;28;20466;-78
2023/01/11 11:24:59;;;;;;;25.92;4.00;;;;;;;9.65;100.00;101093.84;5054293;28;20041;-83
2023/01/11 11:27:28;;;;;;;24.52;4.28;;;;;;;9.58;100.00;101103.28;5057559;28;20025;-80
2023/01/11 11:29:55;;;;;;;23.35;3.25;;;;;;;9.61;100.00;101097.72;5056938;28;20033;-80
2023/01/11 11:32:35;;;;;;;20.98;3.22;;;;;;;9.71;100.00;101095.16;5054672;28;20025;-82
2023/01/11 11:35:01;;;;;;;26.33;2.97;;;;;;;9.78;100.00;101100.81;5053553;28;20024;-81
2023/01/11 11:37:43;;;;;;;20.13;3.20;;;;;;;10.03;100.00;101094.28;5053707;28;20021;-83
2023/01/11 11:40:33;;;;;;;16.35;3.17;;;;;;;9.87;100.00;101108.88;5053351;28;20025;-85
2023/01/11 11:43:29;;;;;;;17.67;3.65;;;;;;;9.71;100.00;101097.81;5053664;28;20025;-87
2023/01/11 11:46:00;;;;;;;21.50;2.83;;;;;;;9.34;100.00;101108.81;5052568;28;20480;-82
2023/01/11 11:48:30;;;;;;;17.98;3.00;;;;;;;9.12;100.00;101104.38;5053629;28;20029;-85
2023/01/11 11:50:58;;;;;;;18.15;2.83;;;;;;;8.98;100.00;101116.09;5053127;28;20350;-80
2023/01/11 11:53:33;;;;;;;32.90;3.83;;;;;;;8.92;100.00;101119.25;5052926;28;20029;-83
2023/01/11 11:56:05;;;;;;;26.77;3.47;;;;;;;8.91;100.00;101101.63;5052913;28;20049;-80
2023/01/11 11:58:31;;;;;;;20.25;3.90;;;;;;;8.91;100.00;101114.91;5053002;28;20419;-83
2023/01/11 12:00:56;;;;;;;28.10;3.08;;;;;;;8.83;100.00;101116.34;5052800;28;20056;-84
2023/01/11 12:03:29;;;;;;;17.10;3.03;;;;;;;8.83;100.00;101110.19;5052893;28;20445;-82
2023/01/11 12:06:08;;;;;;;16.70;2.60;;;;;;;8.91;100.00;101107.81;5053112;28;20026;-82
2023/01/11 12:08:34;;;;;;;25.17;3.78;;;;;;;9.23;100.00;101111.50;5052216;28;20029;-82
2023/01/11 12:11:03;;;;;;;20.23;4.22;;;;;;;9.38;100.00;101107.59;5052447;28;20029;-83